createdAt,value
2022-08-22T00:01:53.353Z,8.30
2022-08-22T00:03:08.327Z,13.70
2022-08-22T00:03:09.412Z,2.30
2022-08-22T00:05:28.086Z,10.50
2022-08-22T00:09:33.388Z,10.40
2022-08-22T00:13:15.455Z,9.30
2022-08-22T00:16:53.499Z,10.30
2022-08-22T00:20:57.220Z,10.90
2022-08-22T00:24:46.267Z,7.30
2022-08-22T00:28:37.631Z,9.70
2022-08-22T00:32:08.326Z,11.00
2022-08-22T00:36:15.642Z,9.10
2022-08-22T00:39:45.964Z,12.10
2022-08-22T00:43:19.869Z,11.10
2022-08-22T00:47:11.096Z,11.60
2022-08-22T00:50:52.390Z,11.30
2022-08-22T00:54:37.140Z,12.30
2022-08-22T00:58:33.908Z,11.70
2022-08-22T01:02:22.100Z,9.70
2022-08-22T01:06:03.003Z,9.40
2022-08-22T01:09:47.274Z,9.10
2022-08-22T01:13:28.775Z,9.40
2022-08-22T01:17:29.432Z,9.40
2022-08-22T01:21:16.041Z,7.50
2022-08-22T01:25:22.369Z,9.40
2022-08-22T01:29:28.387Z,8.90
2022-08-22T01:33:21.363Z,8.90
2022-08-22T01:37:05.038Z,7.50
2022-08-22T01:40:53.587Z,6.80
2022-08-22T01:44:30.302Z,10.90
2022-08-22T01:48:15.712Z,9.60
2022-08-22T01:51:50.211Z,10.70
2022-08-22T01:55:21.803Z,10.10
2022-08-22T01:59:20.142Z,8.80
2022-08-22T02:03:23.156Z,8.60
2022-08-22T02:07:31.761Z,9.20
2022-08-22T02:11:11.889Z,6.50
2022-08-22T02:14:51.988Z,10.90
2022-08-22T02:18:50.181Z,9.90
2022-08-22T02:22:34.999Z,11.10
2022-08-22T02:26:46.328Z,11.20
2022-08-22T02:30:12.686Z,11.30
2022-08-22T02:33:57.070Z,9.70
2022-08-22T02:37:31.044Z,8.20
2022-08-22T02:41:16.560Z,10.40
2022-08-22T02:44:48.714Z,10.10
2022-08-22T02:48:38.474Z,9.40
2022-08-22T02:52:40.070Z,11.90
2022-08-22T02:56:14.632Z,10.20
2022-08-22T03:00:02.934Z,11.60
2022-08-22T03:03:27.348Z,11.90
2022-08-22T03:07:14.072Z,10.20
2022-08-22T03:10:54.746Z,11.10
2022-08-22T03:14:29.359Z,10.70
2022-08-22T03:18:03.980Z,9.50
2022-08-22T03:22:24.827Z,8.90
2022-08-22T03:26:20.154Z,10.80
2022-08-22T03:29:52.286Z,11.10
2022-08-22T03:33:22.803Z,10.40
2022-08-22T03:37:16.646Z,9.70
2022-08-22T03:41:14.719Z,10.60
2022-08-22T03:45:26.006Z,9.90
2022-08-22T03:48:57.057Z,9.80
2022-08-22T03:53:15.308Z,8.20
2022-08-22T03:57:00.465Z,11.00
2022-08-22T04:00:29.229Z,10.60
2022-08-22T04:04:38.621Z,9.30
2022-08-22T04:08:30.611Z,9.50
2022-08-22T04:12:01.903Z,11.20
2022-08-22T04:15:58.643Z,10.40
2022-08-22T04:19:26.571Z,10.60
2022-08-22T04:23:31.564Z,10.30
2022-08-22T04:27:10.715Z,10.50
2022-08-22T04:30:54.699Z,9.90
2022-08-22T04:34:51.555Z,10.30
2022-08-22T04:38:31.047Z,9.30
2022-08-22T04:42:28.831Z,8.30
2022-08-22T04:46:17.075Z,9.00
2022-08-22T04:49:48.431Z,10.70
2022-08-22T04:53:40.741Z,11.40
2022-08-22T04:57:11.843Z,11.30
2022-08-22T05:01:06.492Z,9.60
2022-08-22T05:05:03.711Z,9.20
2022-08-22T05:08:31.139Z,9.90
2022-08-22T05:12:12.106Z,10.10
2022-08-22T05:15:44.090Z,9.40
2022-08-22T05:19:29.615Z,11.70
2022-08-22T05:23:18.723Z,12.00
2022-08-22T05:26:44.813Z,11.50
2022-08-22T05:30:28.415Z,10.00
2022-08-22T05:34:00.623Z,9.90
2022-08-22T05:37:44.997Z,10.70
2022-08-22T05:41:12.356Z,11.40
2022-08-22T05:44:44.874Z,10.30
2022-08-22T05:48:34.413Z,9.50
2022-08-22T05:52:34.792Z,9.90
2022-08-22T05:56:05.775Z,11.20
2022-08-22T05:59:38.272Z,12.40
2022-08-22T06:03:25.942Z,9.60
2022-08-22T06:07:14.815Z,11.70
2022-08-22T06:10:42.680Z,10.70
2022-08-22T06:14:29.285Z,11.00
2022-08-22T06:18:01.999Z,9.20
2022-08-22T06:21:39.587Z,10.80
2022-08-22T06:25:17.027Z,9.90
2022-08-22T06:28:54.622Z,10.10
2022-08-22T06:32:59.767Z,11.20
2022-08-22T06:36:48.067Z,12.70
2022-08-22T06:40:13.467Z,9.40
2022-08-22T06:43:46.912Z,11.00
2022-08-22T06:47:29.115Z,9.10
2022-08-22T06:51:01.281Z,10.10
2022-08-22T06:54:41.708Z,9.80
2022-08-22T06:58:45.517Z,10.60
2022-08-22T07:02:28.637Z,11.60
2022-08-22T07:06:16.947Z,11.40
2022-08-22T07:09:41.512Z,12.70
2022-08-22T07:13:19.388Z,11.70
2022-08-22T07:17:21.080Z,13.40
2022-08-22T07:20:49.708Z,13.40
2022-08-22T07:24:46.874Z,13.40
2022-08-22T07:28:51.639Z,12.00
2022-08-22T07:32:30.566Z,12.60
2022-08-22T07:36:01.934Z,13.80
2022-08-22T07:40:13.086Z,11.70
2022-08-22T07:43:46.922Z,12.30
2022-08-22T07:47:18.075Z,10.20
2022-08-22T07:51:17.253Z,10.90
2022-08-22T07:54:47.207Z,10.60
2022-08-22T07:58:17.005Z,12.30
2022-08-22T08:01:58.535Z,7.80
2022-08-22T08:05:48.247Z,9.10
2022-08-22T08:09:17.726Z,11.30
2022-08-22T08:13:01.673Z,7.90
2022-08-22T08:16:32.681Z,8.10
2022-08-22T08:20:09.420Z,7.80
2022-08-22T08:23:46.095Z,8.70
2022-08-22T08:27:39.509Z,6.90
2022-08-22T08:31:15.933Z,5.00
2022-08-22T08:34:40.179Z,7.30
2022-08-22T08:38:23.226Z,7.30
2022-08-22T08:41:55.100Z,8.30
2022-08-22T08:46:07.741Z,8.40
2022-08-22T08:49:42.140Z,9.40
2022-08-22T08:53:19.108Z,8.80
2022-08-22T08:57:31.037Z,10.40
2022-08-22T09:01:19.440Z,10.70
2022-08-22T09:05:16.422Z,11.90
2022-08-22T09:09:12.231Z,11.10
2022-08-22T09:13:12.963Z,9.00
2022-08-22T09:16:36.799Z,9.70
2022-08-22T09:20:46.340Z,8.60
2022-08-22T09:24:17.998Z,7.90
2022-08-22T09:28:20.376Z,10.10
2022-08-22T09:32:20.443Z,9.50
2022-08-22T09:40:16.242Z,10.30
2022-08-22T09:40:18.882Z,11.10
2022-08-22T09:44:08.539Z,12.60
2022-08-22T09:48:02.229Z,8.70
2022-08-22T09:52:05.276Z,13.00
2022-08-22T09:55:41.409Z,11.70
2022-08-22T09:59:40.163Z,12.40
2022-08-22T10:03:58.467Z,10.40
2022-08-22T10:07:52.678Z,15.10
2022-08-22T10:11:38.773Z,12.50
2022-08-22T10:15:36.896Z,11.40
2022-08-22T10:19:36.933Z,11.00
2022-08-22T10:23:21.457Z,11.50
2022-08-22T10:26:51.969Z,10.90
2022-08-22T10:30:54.895Z,11.70
2022-08-22T10:34:25.443Z,11.90
2022-08-22T10:38:25.280Z,12.20
2022-08-22T10:42:28.299Z,11.60
2022-08-22T10:46:03.504Z,10.80
2022-08-22T10:49:52.544Z,10.80
2022-08-22T10:53:53.517Z,11.90
2022-08-22T10:57:33.117Z,11.30
2022-08-22T11:01:15.119Z,9.90
2022-08-22T11:05:32.691Z,11.40
2022-08-22T11:09:11.469Z,10.20
2022-08-22T11:12:41.751Z,11.60
2022-08-22T11:16:36.798Z,9.10
2022-08-22T11:20:19.438Z,17.10
2022-08-22T11:23:46.212Z,11.10
2022-08-22T11:28:01.516Z,9.30
2022-08-22T11:31:51.662Z,9.40
2022-08-22T11:35:24.223Z,9.60
2022-08-22T11:39:40.263Z,9.20
2022-08-22T11:43:34.810Z,9.20
2022-08-22T11:47:19.887Z,9.50
2022-08-22T11:51:03.149Z,8.00
2022-08-22T11:55:16.148Z,7.70
2022-08-22T11:58:51.315Z,7.80
2022-08-22T12:02:42.467Z,8.00
2022-08-22T12:06:56.100Z,8.00
2022-08-22T12:10:27.189Z,7.40
2022-08-22T12:14:06.381Z,6.60
2022-08-22T12:18:17.755Z,7.50
2022-08-22T12:21:46.175Z,7.60
2022-08-22T12:25:51.743Z,7.20
2022-08-22T12:29:39.632Z,6.90
2022-08-22T12:33:30.539Z,6.70
2022-08-22T12:37:23.744Z,6.60
2022-08-22T12:41:03.841Z,6.90
2022-08-22T12:44:36.919Z,7.30
2022-08-22T12:48:36.051Z,6.50
2022-08-22T12:52:08.172Z,7.00
2022-08-22T12:56:18.565Z,7.50
2022-08-22T13:00:26.767Z,7.30
2022-08-22T13:03:59.678Z,7.10
2022-08-22T13:07:35.379Z,7.40
2022-08-22T13:11:17.493Z,8.40
2022-08-22T13:14:49.168Z,7.90
2022-08-22T13:18:31.187Z,7.60
2022-08-22T13:22:08.227Z,6.80
2022-08-22T13:26:07.638Z,6.50
2022-08-22T13:29:42.848Z,7.80
2022-08-22T13:33:34.311Z,7.60
2022-08-22T13:37:24.408Z,7.00
2022-08-22T13:40:49.290Z,6.80
2022-08-22T13:44:49.557Z,5.70
2022-08-22T13:48:15.630Z,8.10
2022-08-22T13:52:29.811Z,8.00
2022-08-22T13:56:03.972Z,6.10
2022-08-22T13:59:53.642Z,4.90
2022-08-22T14:03:27.440Z,3.70
2022-08-22T14:07:32.605Z,2.70
2022-08-22T14:11:06.625Z,2.00
2022-08-22T14:14:35.459Z,2.50
2022-08-22T14:18:32.369Z,2.30
2022-08-22T14:22:01.135Z,2.30
2022-08-22T14:25:36.816Z,2.80
2022-08-22T14:29:38.801Z,2.00
2022-08-22T14:33:23.644Z,1.60
2022-08-22T14:37:04.121Z,1.80
2022-08-22T14:40:54.337Z,1.80
2022-08-22T14:44:32.350Z,2.00
2022-08-22T14:48:31.369Z,2.10
2022-08-22T14:52:05.145Z,3.20
2022-08-22T14:55:30.726Z,2.50
2022-08-22T14:59:14.827Z,2.90
2022-08-22T15:02:44.997Z,2.70
2022-08-22T15:06:48.240Z,2.30
2022-08-22T15:10:37.312Z,1.90
2022-08-22T15:14:12.598Z,2.50
2022-08-22T15:17:45.407Z,2.60
2022-08-22T15:21:30.294Z,2.70
2022-08-22T15:25:28.769Z,2.00
2022-08-22T15:29:01.736Z,2.30
2022-08-22T15:32:41.937Z,2.90
2022-08-22T15:36:18.856Z,2.40
2022-08-22T15:40:11.903Z,2.00
2022-08-22T15:43:44.782Z,3.00
2022-08-22T15:47:34.993Z,2.20
2022-08-22T15:51:09.454Z,2.30
2022-08-22T15:54:41.558Z,2.20
2022-08-22T15:58:32.254Z,2.20
2022-08-22T16:01:59.343Z,2.70
2022-08-22T16:05:49.016Z,2.90
2022-08-22T16:09:45.708Z,2.50
2022-08-22T16:13:35.530Z,2.80
2022-08-22T16:17:04.057Z,3.20
2022-08-22T16:20:37.462Z,2.90
2022-08-22T16:24:14.035Z,3.00
2022-08-22T16:27:56.716Z,2.90
2022-08-22T16:31:27.949Z,2.60
2022-08-22T16:35:04.956Z,3.30
2022-08-22T16:38:46.788Z,3.30
2022-08-22T16:42:24.150Z,2.70
2022-08-22T16:45:55.479Z,3.10
2022-08-22T16:49:35.416Z,3.00
2022-08-22T16:53:27.490Z,4.80
2022-08-22T16:57:18.674Z,4.30
2022-08-22T17:01:20.070Z,3.90
2022-08-22T17:04:50.479Z,4.30
2022-08-22T17:08:46.570Z,4.10
2022-08-22T17:12:26.984Z,4.10
2022-08-22T17:16:24.523Z,4.50
2022-08-22T17:19:55.750Z,5.00
2022-08-22T17:23:41.805Z,5.30
2022-08-22T17:27:19.310Z,3.90
2022-08-22T17:30:53.737Z,6.70
2022-08-22T17:34:49.719Z,5.90
2022-08-22T17:39:09.410Z,6.00
2022-08-22T17:42:50.160Z,6.20
2022-08-22T17:46:14.995Z,4.10
2022-08-22T17:50:03.064Z,4.70
2022-08-22T17:53:50.194Z,3.80
2022-08-22T17:57:28.188Z,4.10
2022-08-22T18:01:03.754Z,4.20
2022-08-22T18:05:02.983Z,4.50
2022-08-22T18:13:00.500Z,4.70
2022-08-22T18:16:51.664Z,4.30
2022-08-22T18:20:23.046Z,2.70
2022-08-22T18:24:14.517Z,3.60
2022-08-22T18:28:02.833Z,4.70
2022-08-22T18:32:12.574Z,4.40
2022-08-22T18:36:09.476Z,5.00
2022-08-22T18:39:43.039Z,4.10
2022-08-22T18:43:47.564Z,4.30
2022-08-22T18:47:21.010Z,4.00
2022-08-22T18:50:47.366Z,5.00
2022-08-22T18:55:03.504Z,4.90
2022-08-22T18:59:05.854Z,6.00
2022-08-22T19:03:06.505Z,5.20
2022-08-22T19:06:44.914Z,5.60
2022-08-22T19:10:29.981Z,5.20
2022-08-22T19:14:05.650Z,5.80
2022-08-22T19:18:00.286Z,6.90
2022-08-22T19:21:47.622Z,5.70
2022-08-22T19:25:12.563Z,5.00
2022-08-22T19:28:47.728Z,4.00
2022-08-22T19:32:45.393Z,3.50
2022-08-22T19:36:32.097Z,3.50
2022-08-22T19:40:10.186Z,3.40
2022-08-22T19:43:38.387Z,4.00
2022-08-22T19:47:12.175Z,4.30
2022-08-22T19:50:46.236Z,4.00
2022-08-22T19:54:26.718Z,4.50
2022-08-22T19:58:31.833Z,4.40
2022-08-22T20:02:20.701Z,4.90
2022-08-22T20:06:03.447Z,4.80
2022-08-22T20:10:07.435Z,4.90
2022-08-22T20:13:33.060Z,4.00
2022-08-22T20:17:24.775Z,5.70
2022-08-22T20:21:00.947Z,5.60
2022-08-22T20:24:52.872Z,6.80
2022-08-22T20:28:33.373Z,5.00
2022-08-22T20:31:58.894Z,5.70
2022-08-22T20:35:41.708Z,5.40
2022-08-22T20:39:19.510Z,6.30
2022-08-22T20:43:28.435Z,6.10
2022-08-22T20:47:06.093Z,6.10
2022-08-22T20:50:29.336Z,6.00
2022-08-22T20:54:20.451Z,6.10
2022-08-22T20:57:54.164Z,7.00
2022-08-22T21:01:19.866Z,7.00
2022-08-22T21:05:17.674Z,7.30
2022-08-22T21:08:39.720Z,7.30
2022-08-22T21:12:16.838Z,7.20
2022-08-22T21:16:14.152Z,6.10
2022-08-22T21:19:39.616Z,6.10
2022-08-22T21:23:15.498Z,6.20
2022-08-22T21:26:58.757Z,7.40
2022-08-22T21:30:47.324Z,6.80
2022-08-22T21:34:15.909Z,6.60
2022-08-22T21:37:47.091Z,7.10
2022-08-22T21:41:42.163Z,7.60
2022-08-22T21:45:44.166Z,6.50
2022-08-22T21:49:28.939Z,6.90
2022-08-22T21:52:58.020Z,6.90
2022-08-22T21:56:47.836Z,6.10
2022-08-22T22:00:41.385Z,7.60
2022-08-22T22:04:30.380Z,7.70
2022-08-22T22:07:52.051Z,6.80
2022-08-22T22:11:29.026Z,5.90
2022-08-22T22:15:05.976Z,7.40
2022-08-22T22:18:42.491Z,7.80
2022-08-22T22:22:21.317Z,6.80
2022-08-22T22:26:00.728Z,5.70
2022-08-22T22:29:52.082Z,3.00
2022-08-22T22:33:35.875Z,2.20
2022-08-22T22:36:57.513Z,1.30
2022-08-22T22:40:34.213Z,1.90
2022-08-22T22:44:10.833Z,1.80
2022-08-22T22:47:47.698Z,1.40
2022-08-22T22:51:43.405Z,1.50
2022-08-22T22:55:25.232Z,2.00
2022-08-22T22:59:12.897Z,1.50
2022-08-22T23:02:35.104Z,1.70
2022-08-22T23:06:18.676Z,1.90
2022-08-22T23:09:48.901Z,2.80
2022-08-22T23:13:47.583Z,1.80
2022-08-22T23:17:09.564Z,1.30
2022-08-22T23:20:46.091Z,1.00
2022-08-22T23:24:24.014Z,1.50
2022-08-22T23:28:00.294Z,1.00
2022-08-22T23:31:40.355Z,1.10
2022-08-22T23:35:13.002Z,1.50
2022-08-22T23:39:10.327Z,1.40
2022-08-22T23:42:51.107Z,1.30
2022-08-22T23:46:15.088Z,1.70
2022-08-22T23:49:49.599Z,1.80
2022-08-22T23:53:28.592Z,1.40
2022-08-22T23:57:26.326Z,1.60
